Terminal Aerodrome Forecast
Issued by NWS

Home | Current Version | Previous Version | Text Only | Print | Product List | Glossary On
Versions: 1 2 3 4 5 6 7 8 9 10 11 12 13 14
000
FTUS46 KLOX 011100
TAFPMD
TAF
KPMD 011126Z 0112/0212 VRB03KT P6SM SKC
     FM012000 06012KT P6SM SKC
     FM020200 12007KT P6SM SKC
     FM020600 VRB03KT P6SM SKC=

USA.gov is the U.S. government's official web portal to all federal, state and local government web resources and services.